Time;durP1;ratioP1;P1;durP2;ratioP2;P2;SDS_P1;SDS_P2;PMS_P1;PMS_P2;Temp;Humidity;BMP_temperature;BMP_pressure;BME280_temperature;BME280_humidity;BME280_pressure;Samples;Min_cycle;Max_cycle;Signal;HPM_P1;HPM_P2
2022/08/07 20:51:24;;;;;;;1.20;1.00;;;;;;;23.35;30.52;101702.75;5131753;27;20329;-47
2022/08/07 20:53:50;;;;;;;5.28;0.75;;;;;;;23.28;29.83;101716.59;5111474;28;20032;-46
2022/08/07 20:56:19;;;;;;;1.23;0.80;;;;;;;23.18;30.07;101710.97;5111452;28;20040;-50
2022/08/07 20:58:49;;;;;;;1.00;0.90;;;;;;;23.14;30.36;101715.25;5112197;28;20020;-50
2022/08/07 21:01:16;;;;;;;5.40;1.20;;;;;;;23.07;30.83;101715.41;5112479;28;20027;-51
2022/08/07 21:03:45;;;;;;;2.08;1.27;;;;;;;22.97;30.38;101718.78;5093788;28;20098;-48
2022/08/07 21:06:13;;;;;;;2.13;1.20;;;;;;;22.95;30.50;101718.16;5111685;28;20488;-48
2022/08/07 21:08:44;;;;;;;2.92;1.10;;;;;;;22.90;30.99;101726.31;5111486;28;20036;-51
2022/08/07 21:11:14;;;;;;;2.88;1.05;;;;;;;22.90;30.48;101731.78;5111573;28;20041;-50
2022/08/07 21:13:53;;;;;;;4.38;1.02;;;;;;;22.86;30.73;101736.06;5111550;28;20364;-48
2022/08/07 21:16:25;;;;;;;2.65;1.10;;;;;;;22.79;31.08;101738.16;5111278;28;20459;-52
2022/08/07 21:18:53;;;;;;;5.35;0.90;;;;;;;22.66;30.89;101724.72;5111729;28;20035;-48
2022/08/07 21:21:20;;;;;;;3.28;1.38;;;;;;;22.57;30.92;101738.81;5093208;28;20077;-51
2022/08/07 21:24:05;;;;;;;4.47;0.90;;;;;;;22.47;31.48;101730.38;5093240;28;20088;-48
2022/08/07 21:27:00;;;;;;;1.55;0.80;;;;;;;22.48;31.77;101734.81;5111130;28;20339;-49
2022/08/07 21:29:36;;;;;;;4.55;0.80;;;;;;;22.38;31.57;101735.44;5097603;28;20077;-52
2022/08/07 21:32:17;;;;;;;3.17;1.10;;;;;;;22.29;31.78;101736.88;5111585;28;20028;-49
2022/08/07 21:35:23;;;;;;;1.92;0.90;;;;;;;22.20;32.40;101739.09;5110861;28;20066;-49
2022/08/07 21:38:29;;;;;;;1.55;0.95;;;;;;;22.12;32.72;101736.75;5098925;28;20024;-48
2022/08/07 21:41:34;;;;;;;8.55;1.30;;;;;;;22.02;32.76;101741.97;5075106;28;20028;-50
2022/08/07 21:44:12;;;;;;;2.08;1.27;;;;;;;21.96;32.39;101743.78;5075205;28;20028;-49
2022/08/07 21:46:54;;;;;;;2.63;1.27;;;;;;;21.94;33.27;101745.91;5089075;28;20036;-49
2022/08/07 21:49:45;;;;;;;1.77;1.35;;;;;;;21.92;32.69;101741.75;5071248;28;20555;-49
2022/08/07 21:52:35;;;;;;;2.67;1.10;;;;;;;21.89;33.74;101745.78;5076508;28;20035;-48
2022/08/07 21:55:10;;;;;;;2.05;0.77;;;;;;;21.83;33.20;101741.28;5075051;28;20038;-48
2022/08/07 21:57:51;;;;;;;1.23;0.88;;;;;;;21.89;33.52;101755.91;5058072;28;20063;-51
2022/08/07 22:00:22;;;;;;;1.15;0.77;;;;;;;21.87;33.28;101758.06;5058560;28;20047;-50
2022/08/07 22:03:02;;;;;;;1.05;0.63;;;;;;;21.84;33.98;101757.47;5058199;28;20480;-49
2022/08/07 22:05:32;;;;;;;1.33;0.70;;;;;;;21.75;33.57;101749.81;5074874;28;20040;-49
2022/08/07 22:08:00;;;;;;;1.67;0.70;;;;;;;21.73;34.26;101761.03;5076524;28;20029;-51
2022/08/07 22:10:29;;;;;;;1.30;0.82;;;;;;;21.62;34.11;101751.72;5075951;28;20055;-51
2022/08/07 22:13:11;;;;;;;1.02;0.80;;;;;;;21.60;34.64;101758.47;5074635;28;20039;-53
2022/08/07 22:15:48;;;;;;;2.95;1.10;;;;;;;21.52;35.00;101759.66;5075677;28;20029;-51
2022/08/07 22:18:24;;;;;;;3.55;1.00;;;;;;;21.43;35.47;101763.78;5075523;28;20494;-50
2022/08/07 22:21:04;;;;;;;4.10;0.88;;;;;;;21.36;35.91;101774.81;5075805;28;20043;-49
2022/08/07 22:23:41;;;;;;;3.45;1.00;;;;;;;21.21;36.08;101772.53;5057836;28;20035;-49
2022/08/07 22:26:17;;;;;;;2.75;0.85;;;;;;;21.15;35.96;101775.34;5076013;28;20028;-48
2022/08/07 22:29:05;;;;;;;2.08;1.02;;;;;;;21.18;37.15;101785.81;5075516;28;20035;-48
2022/08/07 22:31:46;;;;;;;2.17;0.90;;;;;;;21.15;36.34;101789.00;5074893;28;20041;-46
2022/08/07 22:34:21;;;;;;;1.60;0.80;;;;;;;21.08;36.61;101780.91;5075676;28;20025;-47
2022/08/07 22:37:12;;;;;;;1.35;0.80;;;;;;;21.15;36.89;101798.03;5057805;28;20028;-47
2022/08/07 22:39:50;;;;;;;4.55;0.80;;;;;;;21.00;36.53;101795.69;5075661;28;20024;-46
2022/08/07 22:42:19;;;;;;;0.80;0.60;;;;;;;21.00;36.44;101790.25;5058164;28;20033;-47
2022/08/07 22:44:51;;;;;;;2.63;0.95;;;;;;;21.02;37.06;101804.53;5075588;28;20036;-47
2022/08/07 22:47:30;;;;;;;0.85;0.40;;;;;;;21.00;37.35;101794.88;5075590;28;20032;-47
2022/08/07 22:50:29;;;;;;;2.47;0.70;;;;;;;20.99;38.03;101799.53;5075144;28;20513;-49
2022/08/07 22:53:15;;;;;;;1.92;0.63;;;;;;;20.95;37.28;101802.94;5057372;28;20032;-49
2022/08/07 22:55:57;;;;;;;0.88;0.60;;;;;;;20.87;37.90;101804.06;5074079;28;20032;-48
2022/08/07 22:58:51;;;;;;;1.58;0.80;;;;;;;20.59;38.02;101761.75;5074927;28;20028;-51
2022/08/07 23:01:52;;;;;;;1.92;0.80;;;;;;;20.78;40.13;101806.31;5059955;28;20085;-48
2022/08/07 23:04:42;;;;;;;1.67;0.98;;;;;;;20.67;38.76;101802.44;5073323;28;20040;-52
2022/08/07 23:07:35;;;;;;;1.20;0.45;;;;;;;20.68;38.07;101809.56;5057303;28;20431;-52
2022/08/07 23:10:40;;;;;;;1.35;0.63;;;;;;;20.66;39.27;101813.59;5073916;28;20116;-48
2022/08/07 23:13:26;;;;;;;3.22;0.80;;;;;;;20.46;40.00;101803.69;5059889;28;20064;-50
2022/08/07 23:16:07;;;;;;;3.15;0.70;;;;;;;20.31;40.45;101803.22;5074658;28;20043;-50
2022/08/07 23:20:21;;;;;;;1.10;0.45;;;;;;;20.38;39.27;101817.63;5039899;28;20465;-51
2022/08/07 23:21:47;;;;;;;3.63;1.00;;;;;;;20.35;40.08;101820.81;5059533;28;20036;-53
2022/08/07 23:24:39;;;;;;;1.67;0.82;;;;;;;20.31;40.65;101823.16;5074720;28;20354;-53
2022/08/07 23:27:25;;;;;;;1.05;0.60;;;;;;;20.22;40.04;101812.75;5073510;28;20492;-49
2022/08/07 23:30:10;;;;;;;1.27;0.80;;;;;;;20.24;40.51;101827.84;5073365;28;20033;-50
2022/08/07 23:33:12;;;;;;;1.83;0.47;;;;;;;20.11;40.59;101807.00;5039677;28;20123;-53
2022/08/07 23:35:54;;;;;;;1.08;0.60;;;;;;;20.12;39.78;101821.47;5056871;28;20032;-49
2022/08/07 23:38:36;;;;;;;1.98;0.82;;;;;;;19.92;40.05;101805.28;5074288;28;20055;-51
2022/08/07 23:41:30;;;;;;;3.35;0.88;;;;;;;19.99;40.44;101832.50;5075228;28;20150;-48
2022/08/07 23:44:33;;;;;;;3.33;0.75;;;;;;;19.90;41.28;101830.03;5073040;28;20046;-48
2022/08/07 23:47:33;;;;;;;1.58;0.95;;;;;;;19.82;41.92;101833.03;5073302;28;20052;-50
2022/08/07 23:50:19;;;;;;;0.93;0.80;;;;;;;19.74;41.90;101836.03;5072957;28;20075;-50
2022/08/07 23:53:25;;;;;;;1.60;1.20;;;;;;;19.67;42.49;101827.88;5073744;28;20099;-49
2022/08/07 23:55:55;;;;;;;;;;;;;;;19.64;42.25;101832.94;5059259;28;20039;-49
2022/08/07 23:58:31;;;;;;;1.92;0.93;;;;;;;19.60;40.49;101823.53;5073756;28;20442;-49
